createdAt,value
2019-02-24T00:02:41.893Z,101415.20
2019-02-24T00:07:47.441Z,101412.17
2019-02-24T00:12:52.974Z,101419.27
2019-02-24T00:18:01.155Z,101419.67
2019-02-24T00:23:09.856Z,101421.88
2019-02-24T00:28:16.034Z,101420.95
2019-02-24T00:33:21.762Z,101422.72
2019-02-24T00:38:29.207Z,101414.37
2019-02-24T00:43:34.899Z,101412.22
2019-02-24T00:48:40.545Z,101413.10
2019-02-24T00:53:46.097Z,101394.92
2019-02-24T00:58:51.669Z,101412.64
2019-02-24T01:03:57.175Z,101398.95
2019-02-24T01:09:03.063Z,101391.01
2019-02-24T01:14:11.032Z,101391.42
2019-02-24T01:19:16.544Z,101371.63
2019-02-24T01:24:22.141Z,101366.70
2019-02-24T01:29:29.893Z,101367.17
2019-02-24T01:34:38.687Z,101381.79
2019-02-24T01:39:46.582Z,101392.78
2019-02-24T01:44:55.461Z,101406.05
2019-02-24T01:50:03.071Z,101369.89
2019-02-24T01:55:08.725Z,101346.52
2019-02-24T02:00:17.292Z,101335.07
2019-02-24T02:05:22.879Z,101331.85
2019-02-24T02:10:28.880Z,101343.88
2019-02-24T02:15:35.077Z,101349.98
2019-02-24T02:20:40.609Z,101364.63
2019-02-24T02:25:46.544Z,101362.42
2019-02-24T02:30:52.067Z,101374.41
2019-02-24T02:35:58.047Z,101366.90
2019-02-24T02:41:04.207Z,101361.16
2019-02-24T02:46:11.136Z,101360.30
2019-02-24T02:51:16.731Z,101340.05
2019-02-24T02:56:22.515Z,101334.31
2019-02-24T03:01:29.815Z,101336.94
2019-02-24T03:06:55.917Z,101341.35
2019-02-24T03:12:01.501Z,101345.76
2019-02-24T03:17:07.844Z,101330.80
2019-02-24T03:22:13.317Z,101340.94
2019-02-24T03:27:19.082Z,101359.46
2019-02-24T03:32:24.895Z,101362.11
2019-02-24T03:37:30.523Z,101361.22
2019-02-24T03:42:36.047Z,101362.11
2019-02-24T03:47:41.899Z,101353.75
2019-02-24T03:52:47.915Z,101359.03
2019-02-24T03:57:53.644Z,101366.52
2019-02-24T04:02:59.298Z,101378.41
2019-02-24T04:08:05.820Z,101367.84
2019-02-24T04:13:13.091Z,101354.66
2019-02-24T04:18:18.864Z,101363.45
2019-02-24T04:23:24.683Z,101352.88
2019-02-24T04:28:31.962Z,101355.98
2019-02-24T04:33:37.530Z,101349.35
2019-02-24T04:38:43.334Z,101341.00
2019-02-24T04:43:48.933Z,101345.42
2019-02-24T04:48:55.975Z,101355.07
2019-02-24T04:54:01.636Z,101357.28
2019-02-24T04:59:08.738Z,101349.36
2019-02-24T05:04:14.441Z,101346.72
2019-02-24T05:09:20.223Z,101330.00
2019-02-24T05:14:26.161Z,101319.44
2019-02-24T05:19:31.789Z,101342.33
2019-02-24T05:24:37.613Z,101334.39
2019-02-24T05:29:46.201Z,101334.41
2019-02-24T05:34:51.408Z,101325.17
2019-02-24T05:39:57.952Z,101307.99
2019-02-24T05:45:04.395Z,101282.48
2019-02-24T05:50:10.359Z,101285.98
2019-02-24T05:55:16.460Z,101291.72
2019-02-24T06:00:22.296Z,101264.42
2019-02-24T06:05:27.967Z,101267.47
2019-02-24T06:10:33.788Z,101255.17
2019-02-24T06:15:39.779Z,101260.00
2019-02-24T06:20:45.561Z,101278.45
2019-02-24T06:25:52.142Z,101287.75
2019-02-24T06:30:57.792Z,101310.58
2019-02-24T06:36:06.221Z,101314.59
2019-02-24T06:41:12.234Z,101323.79
2019-02-24T06:46:21.104Z,101308.73
2019-02-24T06:51:28.803Z,101303.44
2019-02-24T06:56:34.782Z,101302.90
2019-02-24T07:01:40.487Z,101312.11
2019-02-24T07:06:46.764Z,101303.66
2019-02-24T07:11:52.437Z,101287.19
2019-02-24T07:16:59.534Z,101278.33
2019-02-24T07:22:08.555Z,101286.14
2019-02-24T07:27:14.725Z,101287.35
2019-02-24T07:32:21.327Z,101282.48
2019-02-24T07:37:27.306Z,101284.10
2019-02-24T07:42:35.733Z,101272.41
2019-02-24T07:47:41.273Z,101279.59
2019-02-24T07:52:46.841Z,101294.74
2019-02-24T07:57:52.722Z,101288.38
2019-02-24T08:03:00.592Z,101293.83
2019-02-24T08:08:16.044Z,101294.84
2019-02-24T08:13:14.985Z,101292.19
2019-02-24T08:18:21.028Z,101302.38
2019-02-24T08:23:28.234Z,101302.74
2019-02-24T08:28:34.190Z,101317.11
2019-02-24T08:33:41.046Z,101324.14
2019-02-24T08:38:46.726Z,101325.42
2019-02-24T08:43:52.935Z,101323.78
2019-02-24T08:48:58.576Z,101329.17
2019-02-24T08:54:04.499Z,101341.51
2019-02-24T08:59:10.174Z,101343.62
2019-02-24T09:04:17.966Z,101343.08
2019-02-24T09:09:23.503Z,101356.71
2019-02-24T09:14:29.063Z,101362.00
2019-02-24T09:19:36.612Z,101375.50
2019-02-24T09:24:42.013Z,101378.02
2019-02-24T09:29:48.156Z,101368.92
2019-02-24T09:34:53.717Z,101376.99
2019-02-24T09:39:59.595Z,101379.02
2019-02-24T09:45:05.869Z,101388.25
2019-02-24T09:50:14.681Z,101375.35
2019-02-24T09:55:20.364Z,101359.94
2019-02-24T10:00:26.938Z,101355.05
2019-02-24T10:05:32.635Z,101366.17
2019-02-24T10:10:40.546Z,101349.27
2019-02-24T10:15:46.135Z,101351.33
2019-02-24T10:20:52.231Z,101343.97
2019-02-24T10:25:58.825Z,101345.18
2019-02-24T10:31:07.951Z,101338.37
2019-02-24T10:36:13.598Z,101319.44
2019-02-24T10:41:19.291Z,101319.13
2019-02-24T10:46:25.028Z,101314.34
2019-02-24T10:51:31.599Z,101321.66
2019-02-24T10:56:38.391Z,101321.66
2019-02-24T11:01:43.960Z,101315.28
2019-02-24T11:06:49.947Z,101298.46
2019-02-24T11:11:55.994Z,101291.48
2019-02-24T11:17:05.107Z,101287.12
2019-02-24T11:22:10.961Z,101279.62
2019-02-24T11:27:16.884Z,101279.98
2019-02-24T11:32:39.946Z,101276.16
2019-02-24T11:37:47.813Z,101265.91
2019-02-24T11:42:54.017Z,101244.87
2019-02-24T11:48:00.300Z,101247.47
2019-02-24T11:53:06.952Z,101250.91
2019-02-24T11:58:13.665Z,101233.43
2019-02-24T12:03:19.796Z,101250.30
2019-02-24T12:08:25.707Z,101252.80
2019-02-24T12:13:31.404Z,101247.42
2019-02-24T12:18:39.272Z,101250.41
2019-02-24T12:23:45.038Z,101272.10
2019-02-24T12:28:53.989Z,101293.72
2019-02-24T12:34:01.317Z,101289.20
2019-02-24T12:39:07.500Z,101283.55
2019-02-24T12:44:15.809Z,101289.48
2019-02-24T12:49:23.463Z,101285.02
2019-02-24T12:54:29.165Z,101284.16
2019-02-24T12:59:35.448Z,101284.89
2019-02-24T13:04:41.521Z,101292.59
2019-02-24T13:09:47.469Z,101294.59
2019-02-24T13:14:55.324Z,101291.95
2019-02-24T13:20:01.154Z,101283.25
2019-02-24T13:25:07.356Z,101264.47
2019-02-24T13:30:14.910Z,101271.77
2019-02-24T13:35:20.598Z,101259.74
2019-02-24T13:40:29.322Z,101252.91
2019-02-24T13:45:35.008Z,101251.09
2019-02-24T13:50:41.159Z,101241.77
2019-02-24T13:55:46.880Z,101247.88
2019-02-24T14:00:54.742Z,101242.89
2019-02-24T14:06:02.447Z,101231.72
2019-02-24T14:11:11.315Z,101233.78
2019-02-24T14:16:18.033Z,101232.05
2019-02-24T14:21:23.760Z,101236.44
2019-02-24T14:26:30.339Z,101244.52
2019-02-24T14:31:37.027Z,101246.92
2019-02-24T14:36:45.857Z,101238.84
2019-02-24T14:41:51.838Z,101237.53
2019-02-24T14:47:03.022Z,101241.35
2019-02-24T14:52:09.666Z,101249.06
2019-02-24T14:57:15.320Z,101260.86
2019-02-24T15:02:21.410Z,101270.36
2019-02-24T15:07:27.494Z,101268.42
2019-02-24T15:12:34.313Z,101275.75
2019-02-24T15:17:40.735Z,101273.34
2019-02-24T15:22:47.827Z,101281.72
2019-02-24T15:27:53.609Z,101285.94
2019-02-24T15:32:59.913Z,101277.33
2019-02-24T15:38:07.039Z,101261.46
2019-02-24T15:43:14.075Z,101250.08
2019-02-24T15:48:19.863Z,101242.22
2019-02-24T15:53:26.188Z,101225.65
2019-02-24T15:58:31.864Z,101218.69
2019-02-24T16:03:41.741Z,101242.85
2019-02-24T16:08:48.999Z,101251.42
2019-02-24T16:13:55.191Z,101241.22
2019-02-24T16:19:01.297Z,101238.61
2019-02-24T16:24:12.698Z,101247.95
2019-02-24T16:29:19.355Z,101234.89
2019-02-24T16:34:25.145Z,101233.06
2019-02-24T16:39:31.022Z,101233.97
2019-02-24T16:44:39.457Z,101227.59
2019-02-24T16:49:46.213Z,101236.73
2019-02-24T16:54:53.254Z,101247.70
2019-02-24T16:59:59.098Z,101256.04
2019-02-24T17:05:07.927Z,101252.38
2019-02-24T17:10:15.259Z,101240.97
2019-02-24T17:15:21.295Z,101241.88
2019-02-24T17:20:28.660Z,101251.47
2019-02-24T17:25:36.769Z,101250.34
2019-02-24T17:30:47.239Z,101237.08
2019-02-24T17:35:57.879Z,101234.41
2019-02-24T17:41:08.452Z,101240.71
2019-02-24T17:46:18.397Z,101260.59
2019-02-24T17:51:25.693Z,101263.69
2019-02-24T17:56:36.542Z,101258.46
2019-02-24T18:01:42.689Z,101278.61
2019-02-24T18:06:49.665Z,101283.33
2019-02-24T18:12:00.196Z,101268.39
2019-02-24T18:17:13.930Z,101266.64
2019-02-24T18:22:21.165Z,101266.64
2019-02-24T18:27:27.611Z,101264.35
2019-02-24T18:32:37.176Z,101270.65
2019-02-24T18:37:58.713Z,101266.50
2019-02-24T18:43:08.341Z,101264.16
2019-02-24T18:48:15.785Z,101250.56
2019-02-24T18:53:27.646Z,101244.86
2019-02-24T18:58:41.361Z,101244.86
2019-02-24T19:03:57.360Z,101248.09
2019-02-24T19:09:01.989Z,101262.22
2019-02-24T19:14:21.463Z,101254.00
2019-02-24T19:19:32.794Z,101254.00
2019-02-24T19:24:43.481Z,101268.41
2019-02-24T19:29:56.515Z,101268.41
2019-02-24T19:35:09.805Z,101265.70
2019-02-24T19:40:21.276Z,101260.87
2019-02-24T19:45:28.759Z,101274.81
2019-02-24T19:50:41.264Z,101281.36
2019-02-24T19:55:49.699Z,101279.37
2019-02-24T20:01:17.846Z,101279.37
2019-02-24T20:06:24.309Z,101299.97
2019-02-24T20:11:31.703Z,101301.89
2019-02-24T20:16:42.367Z,101313.17
2019-02-24T20:21:54.197Z,101309.08
2019-02-24T20:27:09.942Z,101319.52
2019-02-24T20:32:18.367Z,101305.88
2019-02-24T20:37:25.162Z,101298.80
2019-02-24T20:42:31.668Z,101303.02
2019-02-24T20:47:38.500Z,101303.80
2019-02-24T20:52:45.973Z,101308.34
2019-02-24T20:57:54.298Z,101310.66
2019-02-24T21:03:01.620Z,101293.88
2019-02-24T21:08:09.225Z,101299.13
2019-02-24T21:13:16.857Z,101303.92
2019-02-24T21:18:23.040Z,101304.80
2019-02-24T21:23:28.833Z,101309.94
2019-02-24T21:28:37.725Z,101300.09
2019-02-24T21:33:44.191Z,101297.19
2019-02-24T21:38:53.691Z,101296.03
2019-02-24T21:44:00.511Z,101290.56
2019-02-24T21:49:20.462Z,101298.27
2019-02-24T21:54:27.857Z,101288.03
2019-02-24T21:59:36.937Z,101281.05
2019-02-24T22:04:42.109Z,101289.70
2019-02-24T22:09:47.811Z,101294.53
2019-02-24T22:14:55.062Z,101300.41
2019-02-24T22:20:02.759Z,101302.92
2019-02-24T22:25:13.280Z,101300.69
2019-02-24T22:30:20.730Z,101312.70
2019-02-24T22:35:26.409Z,101320.97
2019-02-24T22:40:41.039Z,101314.55
2019-02-24T22:45:50.135Z,101330.02
2019-02-24T22:50:57.831Z,101319.56
2019-02-24T22:56:03.337Z,101321.65
2019-02-24T23:01:20.127Z,101319.04
2019-02-24T23:06:26.791Z,101315.42
2019-02-24T23:11:32.398Z,101308.24
2019-02-24T23:16:38.019Z,101310.05
2019-02-24T23:21:43.716Z,101303.38
2019-02-24T23:26:49.375Z,101306.52
2019-02-24T23:31:55.169Z,101304.33
2019-02-24T23:37:02.000Z,101309.21
2019-02-24T23:42:07.576Z,101311.54
2019-02-24T23:47:13.135Z,101306.80
2019-02-24T23:52:19.070Z,101296.65
2019-02-24T23:57:29.917Z,101292.15
